createdAt,value
2023-05-18T00:00:57.622Z,42.40
2023-05-18T00:05:56.962Z,40.70
2023-05-18T00:10:57.080Z,36.70
2023-05-18T00:15:56.431Z,35.70
2023-05-18T00:20:54.738Z,36.60
2023-05-18T00:25:54.071Z,30.40
2023-05-18T00:30:53.240Z,28.60
2023-05-18T00:35:52.360Z,30.20
2023-05-18T00:40:51.505Z,26.30
2023-05-18T00:45:51.838Z,24.70
2023-05-18T00:50:50.203Z,25.50
2023-05-18T00:55:49.310Z,24.60
2023-05-18T01:00:49.654Z,21.30
2023-05-18T01:05:47.750Z,21.90
2023-05-18T01:10:46.084Z,19.50
2023-05-18T01:15:47.207Z,19.70
2023-05-18T01:20:45.558Z,17.20
2023-05-18T01:25:44.709Z,16.10
2023-05-18T01:30:43.911Z,19.20
2023-05-18T01:35:45.053Z,14.70
2023-05-18T01:40:43.180Z,15.30
2023-05-18T01:45:42.343Z,12.50
2023-05-18T01:50:41.484Z,10.90
2023-05-18T01:55:39.627Z,12.20
2023-05-18T02:00:37.986Z,12.90
2023-05-18T02:05:40.111Z,11.30
2023-05-18T02:10:38.409Z,8.70
2023-05-18T02:15:37.707Z,10.70
2023-05-18T02:20:37.018Z,8.90
2023-05-18T02:25:37.349Z,7.50
2023-05-18T02:30:34.685Z,9.30
2023-05-18T02:35:33.838Z,7.70
2023-05-18T02:40:34.007Z,7.30
2023-05-18T02:45:32.539Z,9.10
2023-05-18T02:50:32.474Z,10.30
2023-05-18T02:55:32.904Z,7.20
2023-05-18T03:00:30.985Z,7.00
2023-05-18T03:05:30.395Z,6.90
2023-05-18T03:10:28.468Z,6.20
2023-05-18T03:15:27.776Z,5.50
2023-05-18T03:20:27.888Z,5.90
2023-05-18T03:25:26.142Z,6.40
2023-05-18T03:30:25.367Z,5.10
2023-05-18T03:35:25.695Z,5.90
2023-05-18T03:40:23.961Z,5.50
2023-05-18T03:45:23.211Z,5.90
2023-05-18T03:50:23.466Z,5.10
2023-05-18T03:55:21.689Z,5.20
2023-05-18T04:00:22.956Z,6.10
2023-05-18T04:05:20.204Z,4.30
2023-05-18T04:10:20.457Z,5.30
2023-05-18T04:15:19.734Z,4.30
2023-05-18T04:20:17.919Z,7.80
2023-05-18T04:25:17.162Z,5.10
2023-05-18T04:30:16.372Z,6.10
2023-05-18T04:35:16.634Z,5.30
2023-05-18T04:40:14.894Z,6.50
2023-05-18T04:45:15.169Z,5.10
2023-05-18T04:50:13.405Z,4.50
2023-05-18T04:55:12.683Z,5.10
2023-05-18T05:00:12.958Z,6.60
2023-05-18T05:05:11.182Z,5.60
2023-05-18T05:10:10.431Z,4.80
2023-05-18T05:15:09.756Z,5.30
2023-05-18T05:20:08.976Z,4.50
2023-05-18T05:25:09.247Z,5.00
2023-05-18T05:30:08.499Z,4.80
2023-05-18T05:35:06.724Z,5.00
2023-05-18T05:40:06.980Z,5.70
2023-05-18T05:45:06.249Z,5.40
2023-05-18T05:50:04.505Z,4.60
2023-05-18T05:55:03.727Z,4.00
2023-05-18T06:00:02.996Z,3.90
2023-05-18T06:05:02.238Z,5.00
2023-05-18T06:10:01.453Z,4.30
2023-05-18T06:15:00.708Z,5.10
2023-05-18T06:19:59.929Z,4.60
2023-05-18T06:24:59.165Z,4.40
2023-05-18T06:29:59.385Z,5.10
2023-05-18T06:34:57.889Z,4.40
2023-05-18T06:39:57.934Z,5.00
2023-05-18T06:44:58.181Z,4.80
2023-05-18T06:49:54.437Z,5.90
2023-05-18T06:54:54.662Z,5.90
2023-05-18T06:59:53.932Z,6.50
2023-05-18T07:04:54.139Z,4.90
2023-05-18T07:09:53.393Z,4.70
2023-05-18T07:14:51.651Z,8.60
2023-05-18T07:19:51.913Z,5.30
2023-05-18T07:24:52.105Z,3.80
2023-05-18T07:29:49.332Z,5.50
2023-05-18T07:34:51.730Z,5.30
2023-05-18T07:39:47.789Z,5.20
2023-05-18T07:44:48.047Z,4.70
2023-05-18T07:49:46.311Z,4.80
2023-05-18T07:54:45.559Z,5.40
2023-05-18T07:59:44.826Z,6.40
2023-05-18T08:04:46.063Z,7.00
2023-05-18T08:09:43.269Z,4.50
2023-05-18T08:14:42.524Z,5.80
2023-05-18T08:19:42.789Z,4.80
2023-05-18T08:24:41.019Z,4.80
2023-05-18T08:29:40.254Z,4.30
2023-05-18T08:34:41.501Z,4.40
2023-05-18T08:39:38.756Z,4.50
2023-05-18T08:44:38.040Z,3.80
2023-05-18T08:49:37.306Z,3.60
2023-05-18T08:54:36.562Z,5.70
2023-05-18T08:59:36.864Z,3.90
2023-05-18T09:04:35.178Z,4.30
2023-05-18T09:09:36.447Z,4.40
2023-05-18T09:14:33.706Z,6.10
2023-05-18T09:19:32.982Z,5.70
2023-05-18T09:24:33.260Z,5.60
2023-05-18T09:29:33.727Z,6.30
2023-05-18T09:34:32.807Z,4.90
2023-05-18T09:39:30.034Z,5.00
2023-05-18T09:44:28.268Z,3.80
2023-05-18T09:49:29.527Z,6.60
2023-05-18T09:54:28.785Z,4.10
2023-05-18T09:59:27.027Z,7.80
2023-05-18T10:04:26.347Z,6.80
2023-05-18T10:09:26.447Z,12.50
2023-05-18T10:14:27.714Z,9.50
2023-05-18T10:19:24.013Z,6.50
2023-05-18T10:24:23.248Z,4.70
2023-05-18T10:29:23.487Z,6.80
2023-05-18T10:34:21.716Z,6.20
2023-05-18T10:39:20.936Z,5.20
2023-05-18T10:44:20.145Z,6.10
2023-05-18T10:49:19.505Z,8.20
2023-05-18T10:54:19.547Z,84.60
2023-05-18T10:59:18.783Z,123.80
2023-05-18T11:04:17.056Z,117.50
2023-05-18T11:09:17.288Z,126.30
2023-05-18T11:14:17.533Z,139.30
2023-05-18T11:19:14.854Z,200.90
2023-05-18T11:24:13.943Z,168.10
2023-05-18T11:29:14.213Z,214.90
2023-05-18T11:34:11.502Z,151.60
2023-05-18T11:39:11.784Z,180.80
2023-05-18T11:44:11.027Z,117.10
2023-05-18T11:49:10.403Z,146.80
2023-05-18T11:54:09.517Z,219.00
2023-05-18T11:59:08.785Z,206.50
2023-05-18T12:04:08.049Z,156.00
2023-05-18T12:09:07.129Z,185.70
2023-05-18T12:14:06.377Z,139.20
2023-05-18T12:19:05.633Z,112.00
2023-05-18T12:24:06.921Z,61.40
2023-05-18T12:29:04.120Z,184.10
2023-05-18T12:34:04.386Z,63.50
2023-05-18T12:39:03.624Z,67.60
2023-05-18T12:44:02.863Z,61.90
2023-05-18T12:49:02.122Z,46.30
2023-05-18T12:54:01.338Z,48.20
2023-05-18T12:58:59.569Z,37.00
2023-05-18T13:03:58.993Z,39.00
2023-05-18T13:08:58.102Z,36.00
2023-05-18T13:13:57.391Z,27.30
2023-05-18T13:18:57.694Z,20.40
2023-05-18T13:23:55.910Z,27.10
2023-05-18T13:28:55.225Z,17.20
2023-05-18T13:33:55.516Z,18.00
2023-05-18T13:38:54.778Z,17.10
2023-05-18T13:43:52.991Z,12.60
2023-05-18T13:48:54.264Z,13.30
2023-05-18T13:53:51.497Z,11.70
2023-05-18T13:58:50.714Z,12.30
2023-05-18T14:03:50.069Z,11.30
2023-05-18T14:08:48.150Z,9.30
2023-05-18T14:13:48.409Z,7.90
2023-05-18T14:18:47.724Z,8.90
2023-05-18T14:23:47.019Z,7.50
2023-05-18T14:28:46.249Z,8.00
2023-05-18T14:33:46.485Z,5.30
2023-05-18T14:38:44.734Z,6.50
2023-05-18T14:43:44.968Z,5.80
2023-05-18T14:48:42.199Z,5.20
2023-05-18T14:53:43.455Z,6.40
2023-05-18T14:58:41.690Z,5.80
2023-05-18T15:03:41.033Z,4.40
2023-05-18T15:08:40.137Z,4.90
2023-05-18T15:13:39.371Z,6.10
2023-05-18T15:18:38.739Z,5.00
2023-05-18T15:23:37.783Z,5.00
2023-05-18T15:28:39.036Z,4.60
2023-05-18T15:33:37.276Z,8.50
2023-05-18T15:38:36.529Z,91.60
2023-05-18T15:43:35.770Z,86.90
2023-05-18T15:48:34.007Z,65.80
2023-05-18T15:53:33.307Z,58.90
2023-05-18T15:58:33.545Z,53.20
2023-05-18T16:03:34.987Z,33.90
2023-05-18T16:08:32.101Z,36.30
2023-05-18T16:13:30.251Z,77.90
2023-05-18T16:18:29.581Z,107.10
2023-05-18T16:23:28.843Z,127.30
2023-05-18T16:28:30.177Z,187.50
2023-05-18T16:33:28.484Z,114.00
2023-05-18T16:38:28.124Z,83.60
2023-05-18T16:43:26.225Z,58.00
2023-05-18T16:48:25.466Z,80.10
2023-05-18T16:53:24.747Z,65.00
2023-05-18T16:58:25.041Z,40.70
2023-05-18T17:03:24.679Z,36.90
2023-05-18T17:08:23.886Z,33.70
2023-05-18T17:13:23.121Z,24.40
2023-05-18T17:18:21.347Z,22.20
2023-05-18T17:23:21.625Z,20.30
2023-05-18T17:28:20.871Z,127.90
2023-05-18T17:33:20.188Z,117.80
2023-05-18T17:38:19.445Z,87.80
2023-05-18T17:43:17.744Z,72.40
2023-05-18T17:48:18.039Z,49.50
2023-05-18T17:53:15.233Z,53.00
2023-05-18T17:58:15.487Z,36.60
2023-05-18T18:03:14.847Z,31.50
2023-05-18T18:08:17.088Z,26.70
2023-05-18T18:13:14.321Z,29.80
2023-05-18T18:18:13.629Z,96.40
2023-05-18T18:23:12.910Z,81.10
2023-05-18T18:28:11.180Z,64.10
2023-05-18T18:33:10.543Z,56.80
2023-05-18T18:38:09.629Z,57.50
2023-05-18T18:43:08.873Z,47.10
2023-05-18T18:48:08.195Z,32.60
2023-05-18T18:53:07.446Z,42.80
2023-05-18T18:58:07.701Z,142.10
2023-05-18T19:03:06.969Z,58.10
2023-05-18T19:08:05.210Z,72.10
2023-05-18T19:13:05.556Z,47.80
2023-05-18T19:18:03.804Z,47.10
2023-05-18T19:23:03.149Z,34.00
2023-05-18T19:28:02.464Z,42.80
2023-05-18T19:33:01.766Z,33.40
2023-05-18T19:38:00.881Z,34.30
2023-05-18T19:43:00.959Z,18.10
2023-05-18T19:48:00.262Z,64.30
2023-05-18T19:52:59.701Z,35.10
2023-05-18T19:57:57.785Z,28.90
2023-05-18T20:02:57.037Z,19.40
2023-05-18T20:07:57.304Z,30.80
2023-05-18T20:12:55.598Z,30.30
2023-05-18T20:17:55.982Z,26.70
2023-05-18T20:22:57.036Z,24.70
2023-05-18T20:27:53.302Z,46.80
2023-05-18T20:32:53.567Z,33.60
2023-05-18T20:37:52.803Z,28.30
2023-05-18T20:42:53.014Z,23.20
2023-05-18T20:47:50.269Z,16.30
2023-05-18T20:52:49.451Z,13.80
2023-05-18T20:57:49.698Z,18.20
2023-05-18T21:02:47.701Z,36.80
2023-05-18T21:07:47.727Z,28.40
2023-05-18T21:12:45.972Z,39.40
2023-05-18T21:17:45.222Z,16.50
2023-05-18T21:22:46.452Z,22.50
2023-05-18T21:27:43.672Z,15.70
2023-05-18T21:32:43.046Z,15.30
2023-05-18T21:37:42.111Z,11.00
2023-05-18T21:42:41.388Z,12.40
2023-05-18T21:47:40.719Z,15.10
2023-05-18T21:52:39.946Z,27.90
2023-05-18T21:57:39.215Z,20.30
2023-05-18T22:02:38.510Z,20.30
2023-05-18T22:07:37.777Z,14.90
2023-05-18T22:12:37.068Z,13.60
2023-05-18T22:17:37.346Z,13.60
2023-05-18T22:22:36.617Z,26.40
2023-05-18T22:27:39.132Z,83.40
2023-05-18T22:32:34.075Z,75.40
2023-05-18T22:37:35.157Z,71.00
2023-05-18T22:42:34.407Z,70.50
2023-05-18T22:47:31.610Z,68.20
2023-05-18T22:52:32.825Z,67.40
2023-05-18T22:57:31.064Z,57.50
2023-05-18T23:02:28.366Z,52.10
2023-05-18T23:07:28.603Z,51.10
2023-05-18T23:12:27.844Z,39.00
2023-05-18T23:17:27.161Z,36.40
2023-05-18T23:22:27.365Z,38.40
2023-05-18T23:27:25.659Z,34.80
2023-05-18T23:32:27.029Z,34.90
2023-05-18T23:37:24.107Z,30.10
2023-05-18T23:42:23.369Z,30.20
2023-05-18T23:47:22.689Z,28.70
2023-05-18T23:52:21.804Z,29.80
2023-05-18T23:57:22.034Z,26.50
